sensor_id;sensor_type;location;lat;lon;timestamp;temperature;humidity
40253;DHT22;25972;51.854;4.534;2022-08-21T00:01:18;16.70;99.90
40253;DHT22;25972;51.854;4.534;2022-08-21T00:03:45;16.70;99.90
40253;DHT22;25972;51.854;4.534;2022-08-21T00:06:11;16.70;99.90
40253;DHT22;25972;51.854;4.534;2022-08-21T00:08:37;16.70;99.90
40253;DHT22;25972;51.854;4.534;2022-08-21T00:11:04;16.70;99.90
40253;DHT22;25972;51.854;4.534;2022-08-21T00:13:30;16.70;99.90
40253;DHT22;25972;51.854;4.534;2022-08-21T00:15:56;16.70;99.90
40253;DHT22;25972;51.854;4.534;2022-08-21T00:18:22;16.70;99.90
40253;DHT22;25972;51.854;4.534;2022-08-21T00:20:48;16.70;99.90
40253;DHT22;25972;51.854;4.534;2022-08-21T00:23:14;16.70;99.90
40253;DHT22;25972;51.854;4.534;2022-08-21T00:25:41;16.70;99.90
40253;DHT22;25972;51.854;4.534;2022-08-21T00:28:07;16.60;99.90
40253;DHT22;25972;51.854;4.534;2022-08-21T00:30:34;16.60;99.90
40253;DHT22;25972;51.854;4.534;2022-08-21T00:33:00;16.60;99.90
40253;DHT22;25972;51.854;4.534;2022-08-21T00:35:29;16.60;99.90
40253;DHT22;25972;51.854;4.534;2022-08-21T00:37:56;16.60;99.90
40253;DHT22;25972;51.854;4.534;2022-08-21T00:40:27;16.60;99.90
40253;DHT22;25972;51.854;4.534;2022-08-21T00:42:53;16.50;99.90
40253;DHT22;25972;51.854;4.534;2022-08-21T00:45:20;16.60;99.90
40253;DHT22;25972;51.854;4.534;2022-08-21T00:47:46;16.50;99.90
40253;DHT22;25972;51.854;4.534;2022-08-21T00:50:12;16.50;99.90
40253;DHT22;25972;51.854;4.534;2022-08-21T00:52:38;16.50;99.90
40253;DHT22;25972;51.854;4.534;2022-08-21T00:55:07;16.50;99.90
40253;DHT22;25972;51.854;4.534;2022-08-21T00:57:38;16.50;99.90
40253;DHT22;25972;51.854;4.534;2022-08-21T01:00:11;16.60;99.90
40253;DHT22;25972;51.854;4.534;2022-08-21T01:02:37;16.60;99.90
40253;DHT22;25972;51.854;4.534;2022-08-21T01:05:03;16.50;99.90
40253;DHT22;25972;51.854;4.534;2022-08-21T01:07:29;16.50;99.90
40253;DHT22;25972;51.854;4.534;2022-08-21T01:09:55;16.50;99.90
40253;DHT22;25972;51.854;4.534;2022-08-21T01:12:21;16.50;99.90
40253;DHT22;25972;51.854;4.534;2022-08-21T01:14:48;16.50;99.90
40253;DHT22;25972;51.854;4.534;2022-08-21T01:17:15;16.50;99.90
40253;DHT22;25972;51.854;4.534;2022-08-21T01:19:42;16.50;99.90
40253;DHT22;25972;51.854;4.534;2022-08-21T01:22:08;16.40;99.90
40253;DHT22;25972;51.854;4.534;2022-08-21T01:24:35;16.50;99.90
40253;DHT22;25972;51.854;4.534;2022-08-21T01:27:02;16.40;99.90
40253;DHT22;25972;51.854;4.534;2022-08-21T01:32:17;16.40;99.90
40253;DHT22;25972;51.854;4.534;2022-08-21T01:34:46;16.40;99.90
40253;DHT22;25972;51.854;4.534;2022-08-21T01:37:13;16.30;99.90
40253;DHT22;25972;51.854;4.534;2022-08-21T01:39:40;16.30;99.90
40253;DHT22;25972;51.854;4.534;2022-08-21T01:42:06;16.30;99.90
40253;DHT22;25972;51.854;4.534;2022-08-21T01:44:32;16.30;99.90
40253;DHT22;25972;51.854;4.534;2022-08-21T01:47:00;16.20;99.90
40253;DHT22;25972;51.854;4.534;2022-08-21T01:49:28;16.20;99.90
40253;DHT22;25972;51.854;4.534;2022-08-21T01:51:54;16.20;99.90
40253;DHT22;25972;51.854;4.534;2022-08-21T01:54:19;16.20;99.90
40253;DHT22;25972;51.854;4.534;2022-08-21T01:56:48;16.10;99.90
40253;DHT22;25972;51.854;4.534;2022-08-21T01:59:15;16.10;99.90
40253;DHT22;25972;51.854;4.534;2022-08-21T02:01:41;16.10;99.90
40253;DHT22;25972;51.854;4.534;2022-08-21T02:04:09;16.10;99.90
40253;DHT22;25972;51.854;4.534;2022-08-21T02:06:35;16.00;99.90
40253;DHT22;25972;51.854;4.534;2022-08-21T02:09:03;16.00;99.90
40253;DHT22;25972;51.854;4.534;2022-08-21T02:11:31;15.90;99.90
40253;DHT22;25972;51.854;4.534;2022-08-21T02:13:57;15.90;99.90
40253;DHT22;25972;51.854;4.534;2022-08-21T02:16:23;15.90;99.90
40253;DHT22;25972;51.854;4.534;2022-08-21T02:18:49;15.90;99.90
40253;DHT22;25972;51.854;4.534;2022-08-21T02:21:15;15.90;99.90
40253;DHT22;25972;51.854;4.534;2022-08-21T02:23:41;15.80;99.90
40253;DHT22;25972;51.854;4.534;2022-08-21T02:26:08;15.80;99.90
40253;DHT22;25972;51.854;4.534;2022-08-21T02:28:35;15.80;99.90
40253;DHT22;25972;51.854;4.534;2022-08-21T02:31:01;15.80;99.90
40253;DHT22;25972;51.854;4.534;2022-08-21T02:33:28;15.80;99.90
40253;DHT22;25972;51.854;4.534;2022-08-21T02:35:54;15.70;99.90
40253;DHT22;25972;51.854;4.534;2022-08-21T02:38:24;15.70;99.90
40253;DHT22;25972;51.854;4.534;2022-08-21T02:40:52;15.70;99.90
40253;DHT22;25972;51.854;4.534;2022-08-21T02:43:20;15.70;99.90
40253;DHT22;25972;51.854;4.534;2022-08-21T02:45:47;15.60;99.90
40253;DHT22;25972;51.854;4.534;2022-08-21T02:48:19;15.60;99.90
40253;DHT22;25972;51.854;4.534;2022-08-21T02:50:48;15.60;99.90
40253;DHT22;25972;51.854;4.534;2022-08-21T02:53:15;15.60;99.90
40253;DHT22;25972;51.854;4.534;2022-08-21T02:55:43;15.50;99.90
40253;DHT22;25972;51.854;4.534;2022-08-21T02:58:10;15.50;99.90
40253;DHT22;25972;51.854;4.534;2022-08-21T03:00:37;15.50;99.90
40253;DHT22;25972;51.854;4.534;2022-08-21T03:03:04;15.50;99.90
40253;DHT22;25972;51.854;4.534;2022-08-21T03:05:31;15.50;99.90
40253;DHT22;25972;51.854;4.534;2022-08-21T03:07:58;15.50;99.90
40253;DHT22;25972;51.854;4.534;2022-08-21T03:10:24;15.50;99.90
40253;DHT22;25972;51.854;4.534;2022-08-21T03:12:51;15.40;99.90
40253;DHT22;25972;51.854;4.534;2022-08-21T03:15:19;15.40;99.90
40253;DHT22;25972;51.854;4.534;2022-08-21T03:17:47;15.40;99.90
40253;DHT22;25972;51.854;4.534;2022-08-21T03:20:15;15.40;99.90
40253;DHT22;25972;51.854;4.534;2022-08-21T03:22:42;15.40;99.90
40253;DHT22;25972;51.854;4.534;2022-08-21T03:25:08;15.40;99.90
40253;DHT22;25972;51.854;4.534;2022-08-21T03:27:36;15.40;99.90
40253;DHT22;25972;51.854;4.534;2022-08-21T03:30:03;15.40;99.90
40253;DHT22;25972;51.854;4.534;2022-08-21T03:32:30;15.30;99.90
40253;DHT22;25972;51.854;4.534;2022-08-21T03:34:57;15.40;99.90
40253;DHT22;25972;51.854;4.534;2022-08-21T03:37:23;15.30;99.90
40253;DHT22;25972;51.854;4.534;2022-08-21T03:39:50;15.30;99.90
40253;DHT22;25972;51.854;4.534;2022-08-21T03:42:16;15.30;99.90
40253;DHT22;25972;51.854;4.534;2022-08-21T03:44:43;15.30;99.90
40253;DHT22;25972;51.854;4.534;2022-08-21T03:47:12;15.40;99.90
40253;DHT22;25972;51.854;4.534;2022-08-21T03:49:38;15.40;99.90
40253;DHT22;25972;51.854;4.534;2022-08-21T03:52:04;15.30;99.90
40253;DHT22;25972;51.854;4.534;2022-08-21T03:54:30;15.30;99.90
40253;DHT22;25972;51.854;4.534;2022-08-21T03:56:56;15.30;99.90
40253;DHT22;25972;51.854;4.534;2022-08-21T03:59:22;15.30;99.90
40253;DHT22;25972;51.854;4.534;2022-08-21T04:01:53;15.30;99.90
40253;DHT22;25972;51.854;4.534;2022-08-21T04:04:19;15.30;99.90
40253;DHT22;25972;51.854;4.534;2022-08-21T04:06:45;15.30;99.90
40253;DHT22;25972;51.854;4.534;2022-08-21T04:09:11;15.30;99.90
40253;DHT22;25972;51.854;4.534;2022-08-21T04:11:37;15.30;99.90
40253;DHT22;25972;51.854;4.534;2022-08-21T04:14:03;15.30;99.90
40253;DHT22;25972;51.854;4.534;2022-08-21T04:16:30;15.30;99.90
40253;DHT22;25972;51.854;4.534;2022-08-21T04:18:56;15.30;99.90
40253;DHT22;25972;51.854;4.534;2022-08-21T04:21:22;15.30;99.90
40253;DHT22;25972;51.854;4.534;2022-08-21T04:23:48;15.30;99.90
40253;DHT22;25972;51.854;4.534;2022-08-21T04:26:14;15.30;99.90
40253;DHT22;25972;51.854;4.534;2022-08-21T04:28:39;15.30;99.90
40253;DHT22;25972;51.854;4.534;2022-08-21T04:31:06;15.40;99.90
40253;DHT22;25972;51.854;4.534;2022-08-21T04:33:32;15.30;99.90
40253;DHT22;25972;51.854;4.534;2022-08-21T04:35:58;15.40;99.90
40253;DHT22;25972;51.854;4.534;2022-08-21T04:38:26;15.40;99.90
40253;DHT22;25972;51.854;4.534;2022-08-21T04:40:52;15.30;99.90
40253;DHT22;25972;51.854;4.534;2022-08-21T04:43:19;15.40;99.90
40253;DHT22;25972;51.854;4.534;2022-08-21T04:45:48;15.40;99.90
40253;DHT22;25972;51.854;4.534;2022-08-21T04:48:17;15.40;99.90
40253;DHT22;25972;51.854;4.534;2022-08-21T04:50:58;15.50;99.90
40253;DHT22;25972;51.854;4.534;2022-08-21T04:53:34;15.50;99.90
40253;DHT22;25972;51.854;4.534;2022-08-21T04:56:04;15.50;99.90
40253;DHT22;25972;51.854;4.534;2022-08-21T04:58:34;15.60;99.90
40253;DHT22;25972;51.854;4.534;2022-08-21T05:01:02;15.50;99.90
40253;DHT22;25972;51.854;4.534;2022-08-21T05:03:29;15.60;99.90
40253;DHT22;25972;51.854;4.534;2022-08-21T05:05:57;15.60;99.90
40253;DHT22;25972;51.854;4.534;2022-08-21T05:08:25;15.70;99.90
40253;DHT22;25972;51.854;4.534;2022-08-21T05:10:55;15.70;99.90
40253;DHT22;25972;51.854;4.534;2022-08-21T05:13:20;15.70;99.90
40253;DHT22;25972;51.854;4.534;2022-08-21T05:15:46;15.80;99.90
40253;DHT22;25972;51.854;4.534;2022-08-21T05:18:12;15.80;99.90
40253;DHT22;25972;51.854;4.534;2022-08-21T05:20:38;15.80;99.90
40253;DHT22;25972;51.854;4.534;2022-08-21T05:23:09;15.90;99.90
40253;DHT22;25972;51.854;4.534;2022-08-21T05:25:36;16.00;99.90
40253;DHT22;25972;51.854;4.534;2022-08-21T05:28:03;16.00;99.90
40253;DHT22;25972;51.854;4.534;2022-08-21T05:30:28;16.10;99.90
40253;DHT22;25972;51.854;4.534;2022-08-21T05:32:59;16.00;99.90
40253;DHT22;25972;51.854;4.534;2022-08-21T05:35:26;16.10;99.90
40253;DHT22;25972;51.854;4.534;2022-08-21T05:37:52;16.20;99.90
40253;DHT22;25972;51.854;4.534;2022-08-21T05:40:18;16.20;99.90
40253;DHT22;25972;51.854;4.534;2022-08-21T05:42:44;16.20;99.90
40253;DHT22;25972;51.854;4.534;2022-08-21T05:45:10;16.30;99.90
40253;DHT22;25972;51.854;4.534;2022-08-21T05:47:36;16.40;99.90
40253;DHT22;25972;51.854;4.534;2022-08-21T05:50:02;16.40;99.90
40253;DHT22;25972;51.854;4.534;2022-08-21T05:52:28;16.40;99.90
40253;DHT22;25972;51.854;4.534;2022-08-21T05:54:54;16.60;99.90
40253;DHT22;25972;51.854;4.534;2022-08-21T05:57:21;16.60;99.90
40253;DHT22;25972;51.854;4.534;2022-08-21T05:59:47;16.70;99.90
40253;DHT22;25972;51.854;4.534;2022-08-21T06:02:13;17.10;99.90
40253;DHT22;25972;51.854;4.534;2022-08-21T06:04:40;17.90;99.90
40253;DHT22;25972;51.854;4.534;2022-08-21T06:07:08;18.60;99.90
40253;DHT22;25972;51.854;4.534;2022-08-21T06:09:34;19.20;99.90
40253;DHT22;25972;51.854;4.534;2022-08-21T06:12:07;19.40;99.90
40253;DHT22;25972;51.854;4.534;2022-08-21T06:14:34;19.60;99.90
40253;DHT22;25972;51.854;4.534;2022-08-21T06:17:08;19.40;99.90
40253;DHT22;25972;51.854;4.534;2022-08-21T06:19:35;19.40;99.90
40253;DHT22;25972;51.854;4.534;2022-08-21T06:22:01;19.30;99.90
40253;DHT22;25972;51.854;4.534;2022-08-21T06:24:27;19.10;99.90
40253;DHT22;25972;51.854;4.534;2022-08-21T06:26:53;19.00;99.90
40253;DHT22;25972;51.854;4.534;2022-08-21T06:29:19;19.10;99.90
40253;DHT22;25972;51.854;4.534;2022-08-21T06:31:47;19.10;99.90
40253;DHT22;25972;51.854;4.534;2022-08-21T06:34:13;19.10;99.90
40253;DHT22;25972;51.854;4.534;2022-08-21T06:36:38;19.00;99.90
40253;DHT22;25972;51.854;4.534;2022-08-21T06:39:04;19.30;99.90
40253;DHT22;25972;51.854;4.534;2022-08-21T06:41:30;19.40;99.90
40253;DHT22;25972;51.854;4.534;2022-08-21T06:43:56;19.50;99.90
40253;DHT22;25972;51.854;4.534;2022-08-21T06:46:23;19.50;99.90
40253;DHT22;25972;51.854;4.534;2022-08-21T06:48:50;19.50;99.90
40253;DHT22;25972;51.854;4.534;2022-08-21T06:51:15;19.40;99.90
40253;DHT22;25972;51.854;4.534;2022-08-21T06:53:42;19.40;99.90
40253;DHT22;25972;51.854;4.534;2022-08-21T06:56:08;19.50;99.90
40253;DHT22;25972;51.854;4.534;2022-08-21T06:58:35;19.50;99.90
40253;DHT22;25972;51.854;4.534;2022-08-21T07:01:02;19.50;99.90
40253;DHT22;25972;51.854;4.534;2022-08-21T07:03:31;19.50;99.90
40253;DHT22;25972;51.854;4.534;2022-08-21T07:05:57;19.70;99.90
40253;DHT22;25972;51.854;4.534;2022-08-21T07:08:25;19.70;99.90
40253;DHT22;25972;51.854;4.534;2022-08-21T07:10:54;19.80;99.90
40253;DHT22;25972;51.854;4.534;2022-08-21T07:13:20;19.90;99.90
40253;DHT22;25972;51.854;4.534;2022-08-21T07:15:46;20.20;99.90
40253;DHT22;25972;51.854;4.534;2022-08-21T07:18:12;20.30;99.90
40253;DHT22;25972;51.854;4.534;2022-08-21T07:20:39;20.50;99.90
40253;DHT22;25972;51.854;4.534;2022-08-21T07:23:08;20.40;99.90
40253;DHT22;25972;51.854;4.534;2022-08-21T07:25:34;20.40;99.90
40253;DHT22;25972;51.854;4.534;2022-08-21T07:28:00;20.40;99.90
40253;DHT22;25972;51.854;4.534;2022-08-21T07:30:26;20.70;99.90
40253;DHT22;25972;51.854;4.534;2022-08-21T07:32:52;20.90;99.90
40253;DHT22;25972;51.854;4.534;2022-08-21T07:35:19;21.10;99.90
40253;DHT22;25972;51.854;4.534;2022-08-21T07:37:45;21.00;99.90
40253;DHT22;25972;51.854;4.534;2022-08-21T07:40:11;21.20;99.90
40253;DHT22;25972;51.854;4.534;2022-08-21T07:42:41;21.20;99.90
40253;DHT22;25972;51.854;4.534;2022-08-21T07:45:08;21.30;99.90
40253;DHT22;25972;51.854;4.534;2022-08-21T07:47:35;21.30;99.90
40253;DHT22;25972;51.854;4.534;2022-08-21T07:50:00;21.60;99.90
40253;DHT22;25972;51.854;4.534;2022-08-21T07:52:26;21.60;99.90
40253;DHT22;25972;51.854;4.534;2022-08-21T07:54:52;21.80;99.90
40253;DHT22;25972;51.854;4.534;2022-08-21T07:57:18;22.00;99.90
40253;DHT22;25972;51.854;4.534;2022-08-21T07:59:44;22.10;99.90
40253;DHT22;25972;51.854;4.534;2022-08-21T08:02:09;22.20;99.90
40253;DHT22;25972;51.854;4.534;2022-08-21T08:04:35;22.10;99.90
40253;DHT22;25972;51.854;4.534;2022-08-21T08:07:01;22.00;99.90
40253;DHT22;25972;51.854;4.534;2022-08-21T08:09:27;22.40;99.90
40253;DHT22;25972;51.854;4.534;2022-08-21T08:11:53;22.50;99.90
40253;DHT22;25972;51.854;4.534;2022-08-21T08:14:18;22.20;99.90
40253;DHT22;25972;51.854;4.534;2022-08-21T08:16:44;22.20;99.90
40253;DHT22;25972;51.854;4.534;2022-08-21T08:19:10;22.30;99.90
40253;DHT22;25972;51.854;4.534;2022-08-21T08:21:36;22.30;99.90
40253;DHT22;25972;51.854;4.534;2022-08-21T08:24:03;22.40;99.90
40253;DHT22;25972;51.854;4.534;2022-08-21T08:26:29;22.60;99.90
40253;DHT22;25972;51.854;4.534;2022-08-21T08:28:54;22.50;99.90
40253;DHT22;25972;51.854;4.534;2022-08-21T08:31:20;22.60;99.90
40253;DHT22;25972;51.854;4.534;2022-08-21T08:33:46;22.80;99.90
40253;DHT22;25972;51.854;4.534;2022-08-21T08:36:14;22.70;99.90
40253;DHT22;25972;51.854;4.534;2022-08-21T08:38:40;22.40;99.90
40253;DHT22;25972;51.854;4.534;2022-08-21T08:43:42;22.50;99.90
40253;DHT22;25972;51.854;4.534;2022-08-21T08:46:14;22.50;99.90
40253;DHT22;25972;51.854;4.534;2022-08-21T08:48:53;22.40;99.90
40253;DHT22;25972;51.854;4.534;2022-08-21T08:53:59;22.50;99.90
40253;DHT22;25972;51.854;4.534;2022-08-21T08:56:30;22.60;99.90
40253;DHT22;25972;51.854;4.534;2022-08-21T08:59:05;22.70;99.90
40253;DHT22;25972;51.854;4.534;2022-08-21T09:01:32;22.80;99.90
40253;DHT22;25972;51.854;4.534;2022-08-21T09:03:59;23.10;99.90
40253;DHT22;25972;51.854;4.534;2022-08-21T09:06:51;23.10;99.90
40253;DHT22;25972;51.854;4.534;2022-08-21T09:12:15;23.60;99.90
40253;DHT22;25972;51.854;4.534;2022-08-21T09:14:58;23.20;99.90
40253;DHT22;25972;51.854;4.534;2022-08-21T09:28:38;24.40;99.90
40253;DHT22;25972;51.854;4.534;2022-08-21T09:31:11;24.40;99.90
40253;DHT22;25972;51.854;4.534;2022-08-21T09:33:40;24.70;99.90
40253;DHT22;25972;51.854;4.534;2022-08-21T09:36:06;24.70;99.90
40253;DHT22;25972;51.854;4.534;2022-08-21T09:38:34;24.80;99.90
40253;DHT22;25972;51.854;4.534;2022-08-21T09:41:08;25.10;99.90
40253;DHT22;25972;51.854;4.534;2022-08-21T09:43:37;25.40;99.90
40253;DHT22;25972;51.854;4.534;2022-08-21T09:48:39;25.50;99.90
40253;DHT22;25972;51.854;4.534;2022-08-21T09:51:10;25.40;99.90
40253;DHT22;25972;51.854;4.534;2022-08-21T09:53:39;25.30;99.90
40253;DHT22;25972;51.854;4.534;2022-08-21T09:56:28;24.90;99.90
40253;DHT22;25972;51.854;4.534;2022-08-21T10:01:51;24.90;99.90
40253;DHT22;25972;51.854;4.534;2022-08-21T10:04:29;25.00;99.90
40253;DHT22;25972;51.854;4.534;2022-08-21T10:07:06;25.30;99.90
40253;DHT22;25972;51.854;4.534;2022-08-21T10:09:32;25.60;99.90
40253;DHT22;25972;51.854;4.534;2022-08-21T10:15:03;25.90;99.70
40253;DHT22;25972;51.854;4.534;2022-08-21T10:17:57;26.00;99.10
40253;DHT22;25972;51.854;4.534;2022-08-21T10:20:45;26.30;99.60
40253;DHT22;25972;51.854;4.534;2022-08-21T10:31:26;26.60;97.80
40253;DHT22;25972;51.854;4.534;2022-08-21T10:34:17;26.30;97.60
40253;DHT22;25972;51.854;4.534;2022-08-21T10:48:28;27.10;97.30
40253;DHT22;25972;51.854;4.534;2022-08-21T10:51:34;27.40;96.80
40253;DHT22;25972;51.854;4.534;2022-08-21T10:54:19;26.90;96.80
40253;DHT22;25972;51.854;4.534;2022-08-21T10:56:51;27.00;96.80
40253;DHT22;25972;51.854;4.534;2022-08-21T10:59:29;27.10;96.90
40253;DHT22;25972;51.854;4.534;2022-08-21T11:02:03;27.20;96.60
40253;DHT22;25972;51.854;4.534;2022-08-21T11:04:48;27.30;95.90
40253;DHT22;25972;51.854;4.534;2022-08-21T11:07:30;27.30;95.90
40253;DHT22;25972;51.854;4.534;2022-08-21T11:10:04;27.30;95.00
40253;DHT22;25972;51.854;4.534;2022-08-21T11:12:42;27.00;95.30
40253;DHT22;25972;51.854;4.534;2022-08-21T11:18:01;27.20;94.80
40253;DHT22;25972;51.854;4.534;2022-08-21T11:20:51;27.40;94.80
40253;DHT22;25972;51.854;4.534;2022-08-21T11:23:26;27.30;94.40
40253;DHT22;25972;51.854;4.534;2022-08-21T11:26:00;27.20;94.30
40253;DHT22;25972;51.854;4.534;2022-08-21T11:28:38;27.10;94.20
40253;DHT22;25972;51.854;4.534;2022-08-21T11:31:35;26.90;93.80
40253;DHT22;25972;51.854;4.534;2022-08-21T11:34:35;26.70;93.70
40253;DHT22;25972;51.854;4.534;2022-08-21T11:40:00;26.70;94.20
40253;DHT22;25972;51.854;4.534;2022-08-21T11:45:33;26.30;94.60
40253;DHT22;25972;51.854;4.534;2022-08-21T11:50:49;26.20;94.40
40253;DHT22;25972;51.854;4.534;2022-08-21T11:53:29;26.00;94.70
40253;DHT22;25972;51.854;4.534;2022-08-21T11:59:23;25.80;94.50
40253;DHT22;25972;51.854;4.534;2022-08-21T12:01:52;25.80;95.10
40253;DHT22;25972;51.854;4.534;2022-08-21T12:04:31;25.70;95.50
40253;DHT22;25972;51.854;4.534;2022-08-21T12:07:14;25.80;95.90
40253;DHT22;25972;51.854;4.534;2022-08-21T12:09:52;26.10;95.70
40253;DHT22;25972;51.854;4.534;2022-08-21T12:12:26;26.20;95.50
40253;DHT22;25972;51.854;4.534;2022-08-21T12:20:38;26.20;94.50
40253;DHT22;25972;51.854;4.534;2022-08-21T12:28:13;26.10;94.90
40253;DHT22;25972;51.854;4.534;2022-08-21T12:30:42;26.10;94.80
40253;DHT22;25972;51.854;4.534;2022-08-21T12:35:48;26.10;94.50
40253;DHT22;25972;51.854;4.534;2022-08-21T12:38:32;26.10;94.50
40253;DHT22;25972;51.854;4.534;2022-08-21T12:41:04;26.00;94.40
40253;DHT22;25972;51.854;4.534;2022-08-21T12:43:40;26.10;94.70
40253;DHT22;25972;51.854;4.534;2022-08-21T12:46:07;26.10;94.80
40253;DHT22;25972;51.854;4.534;2022-08-21T12:48:58;26.30;94.90
40253;DHT22;25972;51.854;4.534;2022-08-21T12:51:49;26.50;94.40
40253;DHT22;25972;51.854;4.534;2022-08-21T12:54:25;26.70;94.60
40253;DHT22;25972;51.854;4.534;2022-08-21T12:57:03;26.40;94.00
40253;DHT22;25972;51.854;4.534;2022-08-21T12:59:30;26.10;93.50
40253;DHT22;25972;51.854;4.534;2022-08-21T13:01:58;26.10;94.10
40253;DHT22;25972;51.854;4.534;2022-08-21T13:04:43;26.00;94.10
40253;DHT22;25972;51.854;4.534;2022-08-21T13:07:12;25.80;94.10
40253;DHT22;25972;51.854;4.534;2022-08-21T13:09:49;26.00;94.70
40253;DHT22;25972;51.854;4.534;2022-08-21T13:12:17;26.20;94.60
40253;DHT22;25972;51.854;4.534;2022-08-21T13:14:46;26.20;94.40
40253;DHT22;25972;51.854;4.534;2022-08-21T13:17:18;26.30;94.70
40253;DHT22;25972;51.854;4.534;2022-08-21T13:19:56;26.40;94.50
40253;DHT22;25972;51.854;4.534;2022-08-21T13:22:24;26.60;94.00
40253;DHT22;25972;51.854;4.534;2022-08-21T13:24:50;26.50;93.90
40253;DHT22;25972;51.854;4.534;2022-08-21T13:27:29;26.40;93.70
40253;DHT22;25972;51.854;4.534;2022-08-21T13:30:22;26.20;93.70
40253;DHT22;25972;51.854;4.534;2022-08-21T13:32:51;25.90;93.90
40253;DHT22;25972;51.854;4.534;2022-08-21T13:35:20;25.80;94.50
40253;DHT22;25972;51.854;4.534;2022-08-21T13:37:48;25.70;94.40
40253;DHT22;25972;51.854;4.534;2022-08-21T13:40:17;25.50;94.30
40253;DHT22;25972;51.854;4.534;2022-08-21T13:42:45;25.30;94.50
40253;DHT22;25972;51.854;4.534;2022-08-21T13:45:31;25.30;94.80
40253;DHT22;25972;51.854;4.534;2022-08-21T13:48:00;24.90;94.80
40253;DHT22;25972;51.854;4.534;2022-08-21T13:50:26;24.80;95.00
40253;DHT22;25972;51.854;4.534;2022-08-21T13:52:59;24.80;95.10
40253;DHT22;25972;51.854;4.534;2022-08-21T13:55:33;24.60;95.10
40253;DHT22;25972;51.854;4.534;2022-08-21T13:58:02;24.70;95.20
40253;DHT22;25972;51.854;4.534;2022-08-21T14:00:31;24.60;95.20
40253;DHT22;25972;51.854;4.534;2022-08-21T14:03:09;24.60;95.30
40253;DHT22;25972;51.854;4.534;2022-08-21T14:05:38;24.60;95.60
40253;DHT22;25972;51.854;4.534;2022-08-21T14:08:12;24.70;95.80
40253;DHT22;25972;51.854;4.534;2022-08-21T14:10:44;24.70;96.00
40253;DHT22;25972;51.854;4.534;2022-08-21T14:16:23;24.80;95.90
40253;DHT22;25972;51.854;4.534;2022-08-21T14:18:52;24.80;96.10
40253;DHT22;25972;51.854;4.534;2022-08-21T14:21:33;24.80;96.10
40253;DHT22;25972;51.854;4.534;2022-08-21T14:24:13;24.90;96.20
40253;DHT22;25972;51.854;4.534;2022-08-21T14:27:04;24.90;96.10
40253;DHT22;25972;51.854;4.534;2022-08-21T14:29:41;25.10;96.20
40253;DHT22;25972;51.854;4.534;2022-08-21T14:32:22;25.20;96.00
40253;DHT22;25972;51.854;4.534;2022-08-21T14:34:51;25.40;96.30
40253;DHT22;25972;51.854;4.534;2022-08-21T14:37:16;25.50;95.90
40253;DHT22;25972;51.854;4.534;2022-08-21T14:39:42;25.60;95.80
40253;DHT22;25972;51.854;4.534;2022-08-21T14:42:08;25.60;95.50
40253;DHT22;25972;51.854;4.534;2022-08-21T14:44:33;25.70;95.30
40253;DHT22;25972;51.854;4.534;2022-08-21T14:46:59;25.80;95.30
40253;DHT22;25972;51.854;4.534;2022-08-21T14:49:27;25.90;95.40
40253;DHT22;25972;51.854;4.534;2022-08-21T14:51:54;26.00;95.10
40253;DHT22;25972;51.854;4.534;2022-08-21T14:54:26;26.00;95.00
40253;DHT22;25972;51.854;4.534;2022-08-21T14:56:53;25.90;94.70
40253;DHT22;25972;51.854;4.534;2022-08-21T14:59:20;25.90;94.60
40253;DHT22;25972;51.854;4.534;2022-08-21T15:01:47;25.80;94.00
40253;DHT22;25972;51.854;4.534;2022-08-21T15:04:13;25.90;93.80
40253;DHT22;25972;51.854;4.534;2022-08-21T15:06:39;26.00;93.60
40253;DHT22;25972;51.854;4.534;2022-08-21T15:09:05;26.00;93.50
40253;DHT22;25972;51.854;4.534;2022-08-21T15:11:32;26.10;93.50
40253;DHT22;25972;51.854;4.534;2022-08-21T15:14:01;26.20;93.60
40253;DHT22;25972;51.854;4.534;2022-08-21T15:16:29;26.00;93.20
40253;DHT22;25972;51.854;4.534;2022-08-21T15:18:58;26.10;93.20
40253;DHT22;25972;51.854;4.534;2022-08-21T15:21:24;26.20;93.00
40253;DHT22;25972;51.854;4.534;2022-08-21T15:23:50;26.10;92.90
40253;DHT22;25972;51.854;4.534;2022-08-21T15:26:15;26.10;93.00
40253;DHT22;25972;51.854;4.534;2022-08-21T15:28:42;26.00;93.00
40253;DHT22;25972;51.854;4.534;2022-08-21T15:31:07;26.00;93.20
40253;DHT22;25972;51.854;4.534;2022-08-21T15:33:34;26.10;93.30
40253;DHT22;25972;51.854;4.534;2022-08-21T15:36:00;26.00;93.30
40253;DHT22;25972;51.854;4.534;2022-08-21T15:38:26;25.90;93.30
40253;DHT22;25972;51.854;4.534;2022-08-21T15:40:52;25.60;93.10
40253;DHT22;25972;51.854;4.534;2022-08-21T15:43:27;25.60;93.20
40253;DHT22;25972;51.854;4.534;2022-08-21T15:45:54;25.50;93.20
40253;DHT22;25972;51.854;4.534;2022-08-21T15:48:20;25.30;93.50
40253;DHT22;25972;51.854;4.534;2022-08-21T15:50:45;25.10;93.60
40253;DHT22;25972;51.854;4.534;2022-08-21T15:53:11;24.90;93.60
40253;DHT22;25972;51.854;4.534;2022-08-21T15:55:37;24.70;93.80
40253;DHT22;25972;51.854;4.534;2022-08-21T15:58:04;24.50;93.80
40253;DHT22;25972;51.854;4.534;2022-08-21T16:00:34;24.40;93.70
40253;DHT22;25972;51.854;4.534;2022-08-21T16:03:00;24.20;93.60
40253;DHT22;25972;51.854;4.534;2022-08-21T16:05:28;24.10;93.70
40253;DHT22;25972;51.854;4.534;2022-08-21T16:07:54;24.10;93.80
40253;DHT22;25972;51.854;4.534;2022-08-21T16:10:21;23.90;93.90
40253;DHT22;25972;51.854;4.534;2022-08-21T16:12:51;23.90;93.90
40253;DHT22;25972;51.854;4.534;2022-08-21T16:15:19;23.80;94.00
40253;DHT22;25972;51.854;4.534;2022-08-21T16:17:46;23.70;94.20
40253;DHT22;25972;51.854;4.534;2022-08-21T16:20:18;23.70;94.30
40253;DHT22;25972;51.854;4.534;2022-08-21T16:22:44;23.70;94.40
40253;DHT22;25972;51.854;4.534;2022-08-21T16:25:11;23.60;94.50
40253;DHT22;25972;51.854;4.534;2022-08-21T16:27:37;23.60;94.50
40253;DHT22;25972;51.854;4.534;2022-08-21T16:30:06;23.50;94.60
40253;DHT22;25972;51.854;4.534;2022-08-21T16:32:32;23.50;94.80
40253;DHT22;25972;51.854;4.534;2022-08-21T16:35:00;23.50;95.00
40253;DHT22;25972;51.854;4.534;2022-08-21T16:37:26;23.40;95.00
40253;DHT22;25972;51.854;4.534;2022-08-21T16:39:52;23.30;95.20
40253;DHT22;25972;51.854;4.534;2022-08-21T16:42:25;23.20;95.20
40253;DHT22;25972;51.854;4.534;2022-08-21T16:44:52;23.20;95.40
40253;DHT22;25972;51.854;4.534;2022-08-21T16:47:18;23.10;95.50
40253;DHT22;25972;51.854;4.534;2022-08-21T16:49:44;23.20;95.90
40253;DHT22;25972;51.854;4.534;2022-08-21T16:52:11;23.10;95.80
40253;DHT22;25972;51.854;4.534;2022-08-21T16:54:41;23.00;95.90
40253;DHT22;25972;51.854;4.534;2022-08-21T16:57:08;23.00;95.90
40253;DHT22;25972;51.854;4.534;2022-08-21T16:59:34;23.00;96.00
40253;DHT22;25972;51.854;4.534;2022-08-21T17:02:00;23.00;96.20
40253;DHT22;25972;51.854;4.534;2022-08-21T17:04:26;23.00;96.20